<?xml version="1.0" encoding="UTF-8" standalone="no" ?>
<gpx xmlns="http://www.topografix.com/GPX/1/1" xmlns:xsi="http://www.w3.org/2001/XMLSchema-instance" xsi:schemaLocation="http://www.topografix.com/GPX/1/1 http://www.topografix.com/GPX/1/1/gpx.xsd" version="1.1" creator="VisuGPX - https://www.visugpx.com">
  <metadata>
    <name>Etape 3-2_Col d'Aspin</name>
  </metadata>
  <trk>
    <name><![CDATA[Etape 3_Argelès Gazost_Bagnères de Luchon_114 kms_3519 D+]]></name>
    <extensions>
      <line xmlns="http://www.topografix.com/GPX/gpx_style/0/2">
        <color>0000FF</color>
        <width>4</width>
      </line>
    </extensions>
    <trkseg>
      <trkpt lat="42.98226" lon="0.2288">
        <ele>854</ele>
        <time>2021-08-20T18:32:17Z</time>
      </trkpt>
      <trkpt lat="42.98231" lon="0.22885">
        <ele>854</ele>
        <time>2021-08-20T18:32:18Z</time>
      </trkpt>
      <trkpt lat="42.98244" lon="0.22894">
        <ele>854</ele>
        <time>2021-08-20T18:32:21Z</time>
      </trkpt>
      <trkpt lat="42.98261" lon="0.22901">
        <ele>853</ele>
        <time>2021-08-20T18:32:24Z</time>
      </trkpt>
      <trkpt lat="42.98273" lon="0.2291">
        <ele>853</ele>
        <time>2021-08-20T18:32:27Z</time>
      </trkpt>
      <trkpt lat="42.98317" lon="0.22963">
        <ele>857</ele>
        <time>2021-08-20T18:32:37Z</time>
      </trkpt>
      <trkpt lat="42.98322" lon="0.22975">
        <ele>858</ele>
        <time>2021-08-20T18:32:39Z</time>
      </trkpt>
      <trkpt lat="42.98327" lon="0.22993">
        <ele>860</ele>
        <time>2021-08-20T18:32:41Z</time>
      </trkpt>
      <trkpt lat="42.98336" lon="0.23049">
        <ele>861</ele>
        <time>2021-08-20T18:32:49Z</time>
      </trkpt>
      <trkpt lat="42.98383" lon="0.23212">
        <ele>864</ele>
        <time>2021-08-20T18:33:12Z</time>
      </trkpt>
      <trkpt lat="42.98383" lon="0.23236">
        <ele>865</ele>
        <time>2021-08-20T18:33:15Z</time>
      </trkpt>
      <trkpt lat="42.98379" lon="0.23251">
        <ele>867</ele>
        <time>2021-08-20T18:33:17Z</time>
      </trkpt>
      <trkpt lat="42.98364" lon="0.23289">
        <ele>869</ele>
        <time>2021-08-20T18:33:22Z</time>
      </trkpt>
      <trkpt lat="42.98349" lon="0.2332">
        <ele>872</ele>
        <time>2021-08-20T18:33:27Z</time>
      </trkpt>
      <trkpt lat="42.98336" lon="0.2334">
        <ele>874</ele>
        <time>2021-08-20T18:33:31Z</time>
      </trkpt>
      <trkpt lat="42.98323" lon="0.23353">
        <ele>876</ele>
        <time>2021-08-20T18:33:34Z</time>
      </trkpt>
      <trkpt lat="42.98294" lon="0.23375">
        <ele>880</ele>
        <time>2021-08-20T18:33:39Z</time>
      </trkpt>
      <trkpt lat="42.98275" lon="0.23397">
        <ele>880</ele>
        <time>2021-08-20T18:33:44Z</time>
      </trkpt>
      <trkpt lat="42.98265" lon="0.23419">
        <ele>879</ele>
        <time>2021-08-20T18:33:47Z</time>
      </trkpt>
      <trkpt lat="42.98254" lon="0.23453">
        <ele>881</ele>
        <time>2021-08-20T18:33:52Z</time>
      </trkpt>
      <trkpt lat="42.98242" lon="0.23494">
        <ele>883</ele>
        <time>2021-08-20T18:33:58Z</time>
      </trkpt>
      <trkpt lat="42.9823" lon="0.23558">
        <ele>883</ele>
        <time>2021-08-20T18:34:06Z</time>
      </trkpt>
      <trkpt lat="42.98219" lon="0.23586">
        <ele>884</ele>
        <time>2021-08-20T18:34:11Z</time>
      </trkpt>
      <trkpt lat="42.98189" lon="0.23636">
        <ele>889</ele>
        <time>2021-08-20T18:34:19Z</time>
      </trkpt>
      <trkpt lat="42.98016" lon="0.23836">
        <ele>897</ele>
        <time>2021-08-20T18:34:59Z</time>
      </trkpt>
      <trkpt lat="42.97944" lon="0.23946">
        <ele>902</ele>
        <time>2021-08-20T18:35:19Z</time>
      </trkpt>
      <trkpt lat="42.97932" lon="0.23957">
        <ele>903</ele>
        <time>2021-08-20T18:35:21Z</time>
      </trkpt>
      <trkpt lat="42.97883" lon="0.23982">
        <ele>912</ele>
        <time>2021-08-20T18:35:30Z</time>
      </trkpt>
      <trkpt lat="42.97863" lon="0.23994">
        <ele>915</ele>
        <time>2021-08-20T18:35:34Z</time>
      </trkpt>
      <trkpt lat="42.9785" lon="0.24009">
        <ele>917</ele>
        <time>2021-08-20T18:35:37Z</time>
      </trkpt>
      <trkpt lat="42.9784" lon="0.24024">
        <ele>916</ele>
        <time>2021-08-20T18:35:40Z</time>
      </trkpt>
      <trkpt lat="42.97834" lon="0.24038">
        <ele>913</ele>
        <time>2021-08-20T18:35:42Z</time>
      </trkpt>
      <trkpt lat="42.97771" lon="0.24206">
        <ele>907</ele>
        <time>2021-08-20T18:36:07Z</time>
      </trkpt>
      <trkpt lat="42.97757" lon="0.24228">
        <ele>904</ele>
        <time>2021-08-20T18:36:10Z</time>
      </trkpt>
      <trkpt lat="42.97751" lon="0.24236">
        <ele>902</ele>
        <time>2021-08-20T18:36:12Z</time>
      </trkpt>
      <trkpt lat="42.97741" lon="0.24243">
        <ele>901</ele>
        <time>2021-08-20T18:36:14Z</time>
      </trkpt>
      <trkpt lat="42.97717" lon="0.24254">
        <ele>903</ele>
        <time>2021-08-20T18:36:18Z</time>
      </trkpt>
      <trkpt lat="42.97677" lon="0.24268">
        <ele>906</ele>
        <time>2021-08-20T18:36:26Z</time>
      </trkpt>
      <trkpt lat="42.97609" lon="0.24282">
        <ele>912</ele>
        <time>2021-08-20T18:36:38Z</time>
      </trkpt>
      <trkpt lat="42.97578" lon="0.24286">
        <ele>914</ele>
        <time>2021-08-20T18:36:44Z</time>
      </trkpt>
      <trkpt lat="42.97559" lon="0.24293">
        <ele>914</ele>
        <time>2021-08-20T18:36:47Z</time>
      </trkpt>
      <trkpt lat="42.97535" lon="0.24307">
        <ele>913</ele>
        <time>2021-08-20T18:36:52Z</time>
      </trkpt>
      <trkpt lat="42.97513" lon="0.24315">
        <ele>912</ele>
        <time>2021-08-20T18:36:56Z</time>
      </trkpt>
      <trkpt lat="42.97491" lon="0.24317">
        <ele>913</ele>
        <time>2021-08-20T18:37:00Z</time>
      </trkpt>
      <trkpt lat="42.97415" lon="0.24318">
        <ele>916</ele>
        <time>2021-08-20T18:37:13Z</time>
      </trkpt>
      <trkpt lat="42.97385" lon="0.24323">
        <ele>916</ele>
        <time>2021-08-20T18:37:19Z</time>
      </trkpt>
      <trkpt lat="42.9735" lon="0.24332">
        <ele>915</ele>
        <time>2021-08-20T18:37:25Z</time>
      </trkpt>
      <trkpt lat="42.97275" lon="0.24359">
        <ele>921</ele>
        <time>2021-08-20T18:37:39Z</time>
      </trkpt>
      <trkpt lat="42.97233" lon="0.24371">
        <ele>922</ele>
        <time>2021-08-20T18:37:46Z</time>
      </trkpt>
      <trkpt lat="42.9718" lon="0.24398">
        <ele>922</ele>
        <time>2021-08-20T18:37:56Z</time>
      </trkpt>
      <trkpt lat="42.97169" lon="0.24402">
        <ele>922</ele>
        <time>2021-08-20T18:37:58Z</time>
      </trkpt>
      <trkpt lat="42.97034" lon="0.24412">
        <ele>934</ele>
        <time>2021-08-20T18:38:23Z</time>
      </trkpt>
      <trkpt lat="42.96989" lon="0.2442">
        <ele>938</ele>
        <time>2021-08-20T18:38:31Z</time>
      </trkpt>
      <trkpt lat="42.96915" lon="0.24421">
        <ele>944</ele>
        <time>2021-08-20T18:38:44Z</time>
      </trkpt>
      <trkpt lat="42.96885" lon="0.2443">
        <ele>943</ele>
        <time>2021-08-20T18:38:49Z</time>
      </trkpt>
      <trkpt lat="42.96776" lon="0.24482">
        <ele>942</ele>
        <time>2021-08-20T18:39:10Z</time>
      </trkpt>
      <trkpt lat="42.96752" lon="0.24491">
        <ele>943</ele>
        <time>2021-08-20T18:39:14Z</time>
      </trkpt>
      <trkpt lat="42.96703" lon="0.24499">
        <ele>944</ele>
        <time>2021-08-20T18:39:23Z</time>
      </trkpt>
      <trkpt lat="42.96636" lon="0.24505">
        <ele>950</ele>
        <time>2021-08-20T18:39:35Z</time>
      </trkpt>
      <trkpt lat="42.96614" lon="0.24511">
        <ele>952</ele>
        <time>2021-08-20T18:39:39Z</time>
      </trkpt>
      <trkpt lat="42.96538" lon="0.24566">
        <ele>953</ele>
        <time>2021-08-20T18:39:54Z</time>
      </trkpt>
      <trkpt lat="42.96482" lon="0.24615">
        <ele>954</ele>
        <time>2021-08-20T18:40:06Z</time>
      </trkpt>
      <trkpt lat="42.96413" lon="0.24699">
        <ele>958</ele>
        <time>2021-08-20T18:40:22Z</time>
      </trkpt>
      <trkpt lat="42.96384" lon="0.24762">
        <ele>958</ele>
        <time>2021-08-20T18:40:32Z</time>
      </trkpt>
      <trkpt lat="42.96358" lon="0.24808">
        <ele>960</ele>
        <time>2021-08-20T18:40:40Z</time>
      </trkpt>
      <trkpt lat="42.96338" lon="0.24857">
        <ele>961</ele>
        <time>2021-08-20T18:40:47Z</time>
      </trkpt>
      <trkpt lat="42.96301" lon="0.2492">
        <ele>963</ele>
        <time>2021-08-20T18:40:58Z</time>
      </trkpt>
      <trkpt lat="42.96261" lon="0.25012">
        <ele>965</ele>
        <time>2021-08-20T18:41:12Z</time>
      </trkpt>
      <trkpt lat="42.9619" lon="0.25133">
        <ele>972</ele>
        <time>2021-08-20T18:41:32Z</time>
      </trkpt>
      <trkpt lat="42.96176" lon="0.25153">
        <ele>972</ele>
        <time>2021-08-20T18:41:35Z</time>
      </trkpt>
      <trkpt lat="42.96079" lon="0.25277">
        <ele>980</ele>
        <time>2021-08-20T18:41:59Z</time>
      </trkpt>
      <trkpt lat="42.96039" lon="0.25332">
        <ele>985</ele>
        <time>2021-08-20T18:42:09Z</time>
      </trkpt>
      <trkpt lat="42.96002" lon="0.25388">
        <ele>986</ele>
        <time>2021-08-20T18:42:19Z</time>
      </trkpt>
      <trkpt lat="42.95934" lon="0.25464">
        <ele>987</ele>
        <time>2021-08-20T18:42:34Z</time>
      </trkpt>
      <trkpt lat="42.95885" lon="0.25504">
        <ele>993</ele>
        <time>2021-08-20T18:42:45Z</time>
      </trkpt>
      <trkpt lat="42.95839" lon="0.25551">
        <ele>996</ele>
        <time>2021-08-20T18:42:55Z</time>
      </trkpt>
      <trkpt lat="42.95791" lon="0.25603">
        <ele>998</ele>
        <time>2021-08-20T18:43:06Z</time>
      </trkpt>
      <trkpt lat="42.95739" lon="0.2567">
        <ele>995</ele>
        <time>2021-08-20T18:43:18Z</time>
      </trkpt>
      <trkpt lat="42.95691" lon="0.25721">
        <ele>999</ele>
        <time>2021-08-20T18:43:29Z</time>
      </trkpt>
      <trkpt lat="42.95637" lon="0.25772">
        <ele>1002</ele>
        <time>2021-08-20T18:43:41Z</time>
      </trkpt>
      <trkpt lat="42.9561" lon="0.25805">
        <ele>1002</ele>
        <time>2021-08-20T18:43:47Z</time>
      </trkpt>
      <trkpt lat="42.95597" lon="0.25827">
        <ele>1001</ele>
        <time>2021-08-20T18:43:51Z</time>
      </trkpt>
      <trkpt lat="42.95581" lon="0.25865">
        <ele>1001</ele>
        <time>2021-08-20T18:43:57Z</time>
      </trkpt>
      <trkpt lat="42.95562" lon="0.25922">
        <ele>1002</ele>
        <time>2021-08-20T18:44:05Z</time>
      </trkpt>
      <trkpt lat="42.95555" lon="0.25937">
        <ele>1003</ele>
        <time>2021-08-20T18:44:07Z</time>
      </trkpt>
      <trkpt lat="42.95545" lon="0.2595">
        <ele>1003</ele>
        <time>2021-08-20T18:44:10Z</time>
      </trkpt>
      <trkpt lat="42.95511" lon="0.25971">
        <ele>1005</ele>
        <time>2021-08-20T18:44:16Z</time>
      </trkpt>
      <trkpt lat="42.95444" lon="0.25997">
        <ele>1009</ele>
        <time>2021-08-20T18:44:29Z</time>
      </trkpt>
      <trkpt lat="42.95391" lon="0.26025">
        <ele>1016</ele>
        <time>2021-08-20T18:44:39Z</time>
      </trkpt>
      <trkpt lat="42.95366" lon="0.26044">
        <ele>1019</ele>
        <time>2021-08-20T18:44:44Z</time>
      </trkpt>
      <trkpt lat="42.95346" lon="0.26078">
        <ele>1018</ele>
        <time>2021-08-20T18:44:50Z</time>
      </trkpt>
      <trkpt lat="42.95291" lon="0.26182">
        <ele>1022</ele>
        <time>2021-08-20T18:45:06Z</time>
      </trkpt>
      <trkpt lat="42.95252" lon="0.26273">
        <ele>1026</ele>
        <time>2021-08-20T18:45:20Z</time>
      </trkpt>
      <trkpt lat="42.95237" lon="0.26316">
        <ele>1030</ele>
        <time>2021-08-20T18:45:26Z</time>
      </trkpt>
      <trkpt lat="42.95211" lon="0.26407">
        <ele>1042</ele>
        <time>2021-08-20T18:45:39Z</time>
      </trkpt>
      <trkpt lat="42.95205" lon="0.26421">
        <ele>1044</ele>
        <time>2021-08-20T18:45:41Z</time>
      </trkpt>
      <trkpt lat="42.95192" lon="0.26438">
        <ele>1045</ele>
        <time>2021-08-20T18:45:44Z</time>
      </trkpt>
      <trkpt lat="42.95162" lon="0.26472">
        <ele>1048</ele>
        <time>2021-08-20T18:45:51Z</time>
      </trkpt>
      <trkpt lat="42.95154" lon="0.2649">
        <ele>1049</ele>
        <time>2021-08-20T18:45:54Z</time>
      </trkpt>
      <trkpt lat="42.95144" lon="0.26517">
        <ele>1050</ele>
        <time>2021-08-20T18:45:58Z</time>
      </trkpt>
      <trkpt lat="42.9514" lon="0.26536">
        <ele>1051</ele>
        <time>2021-08-20T18:46:01Z</time>
      </trkpt>
      <trkpt lat="42.95139" lon="0.26585">
        <ele>1049</ele>
        <time>2021-08-20T18:46:07Z</time>
      </trkpt>
      <trkpt lat="42.95134" lon="0.26627">
        <ele>1054</ele>
        <time>2021-08-20T18:46:12Z</time>
      </trkpt>
      <trkpt lat="42.95126" lon="0.26653">
        <ele>1056</ele>
        <time>2021-08-20T18:46:16Z</time>
      </trkpt>
      <trkpt lat="42.95118" lon="0.2667">
        <ele>1056</ele>
        <time>2021-08-20T18:46:19Z</time>
      </trkpt>
      <trkpt lat="42.95108" lon="0.2668">
        <ele>1058</ele>
        <time>2021-08-20T18:46:21Z</time>
      </trkpt>
      <trkpt lat="42.95069" lon="0.26708">
        <ele>1061</ele>
        <time>2021-08-20T18:46:29Z</time>
      </trkpt>
      <trkpt lat="42.95023" lon="0.26756">
        <ele>1067</ele>
        <time>2021-08-20T18:46:39Z</time>
      </trkpt>
      <trkpt lat="42.94995" lon="0.26773">
        <ele>1069</ele>
        <time>2021-08-20T18:46:45Z</time>
      </trkpt>
      <trkpt lat="42.94984" lon="0.2679">
        <ele>1073</ele>
        <time>2021-08-20T18:46:48Z</time>
      </trkpt>
      <trkpt lat="42.94978" lon="0.26811">
        <ele>1074</ele>
        <time>2021-08-20T18:46:50Z</time>
      </trkpt>
      <trkpt lat="42.94977" lon="0.26827">
        <ele>1073</ele>
        <time>2021-08-20T18:46:53Z</time>
      </trkpt>
      <trkpt lat="42.94984" lon="0.2687">
        <ele>1069</ele>
        <time>2021-08-20T18:46:58Z</time>
      </trkpt>
      <trkpt lat="42.94984" lon="0.26888">
        <ele>1069</ele>
        <time>2021-08-20T18:47:01Z</time>
      </trkpt>
      <trkpt lat="42.94979" lon="0.26904">
        <ele>1070</ele>
        <time>2021-08-20T18:47:03Z</time>
      </trkpt>
      <trkpt lat="42.94948" lon="0.26968">
        <ele>1073</ele>
        <time>2021-08-20T18:47:13Z</time>
      </trkpt>
      <trkpt lat="42.94915" lon="0.27026">
        <ele>1075</ele>
        <time>2021-08-20T18:47:22Z</time>
      </trkpt>
      <trkpt lat="42.94898" lon="0.27045">
        <ele>1079</ele>
        <time>2021-08-20T18:47:26Z</time>
      </trkpt>
      <trkpt lat="42.94888" lon="0.27051">
        <ele>1080</ele>
        <time>2021-08-20T18:47:28Z</time>
      </trkpt>
      <trkpt lat="42.94873" lon="0.27055">
        <ele>1082</ele>
        <time>2021-08-20T18:47:31Z</time>
      </trkpt>
      <trkpt lat="42.94818" lon="0.27058">
        <ele>1089</ele>
        <time>2021-08-20T18:47:41Z</time>
      </trkpt>
      <trkpt lat="42.94802" lon="0.27061">
        <ele>1091</ele>
        <time>2021-08-20T18:47:44Z</time>
      </trkpt>
      <trkpt lat="42.94767" lon="0.27072">
        <ele>1094</ele>
        <time>2021-08-20T18:47:50Z</time>
      </trkpt>
      <trkpt lat="42.94731" lon="0.2709">
        <ele>1096</ele>
        <time>2021-08-20T18:47:57Z</time>
      </trkpt>
      <trkpt lat="42.94689" lon="0.2712">
        <ele>1098</ele>
        <time>2021-08-20T18:48:05Z</time>
      </trkpt>
      <trkpt lat="42.94637" lon="0.2717">
        <ele>1094</ele>
        <time>2021-08-20T18:48:17Z</time>
      </trkpt>
      <trkpt lat="42.94615" lon="0.27189">
        <ele>1097</ele>
        <time>2021-08-20T18:48:21Z</time>
      </trkpt>
      <trkpt lat="42.94588" lon="0.27208">
        <ele>1096</ele>
        <time>2021-08-20T18:48:27Z</time>
      </trkpt>
      <trkpt lat="42.94578" lon="0.27218">
        <ele>1096</ele>
        <time>2021-08-20T18:48:29Z</time>
      </trkpt>
      <trkpt lat="42.94558" lon="0.27251">
        <ele>1096</ele>
        <time>2021-08-20T18:48:34Z</time>
      </trkpt>
      <trkpt lat="42.94546" lon="0.27286">
        <ele>1098</ele>
        <time>2021-08-20T18:48:40Z</time>
      </trkpt>
      <trkpt lat="42.94522" lon="0.27375">
        <ele>1094</ele>
        <time>2021-08-20T18:48:52Z</time>
      </trkpt>
      <trkpt lat="42.94514" lon="0.27398">
        <ele>1092</ele>
        <time>2021-08-20T18:48:55Z</time>
      </trkpt>
      <trkpt lat="42.94478" lon="0.27494">
        <ele>1088</ele>
        <time>2021-08-20T18:49:09Z</time>
      </trkpt>
      <trkpt lat="42.9447" lon="0.27524">
        <ele>1090</ele>
        <time>2021-08-20T18:49:13Z</time>
      </trkpt>
      <trkpt lat="42.94458" lon="0.27589">
        <ele>1094</ele>
        <time>2021-08-20T18:49:22Z</time>
      </trkpt>
      <trkpt lat="42.94451" lon="0.27606">
        <ele>1096</ele>
        <time>2021-08-20T18:49:25Z</time>
      </trkpt>
      <trkpt lat="42.94443" lon="0.27621">
        <ele>1097</ele>
        <time>2021-08-20T18:49:27Z</time>
      </trkpt>
      <trkpt lat="42.94405" lon="0.2767">
        <ele>1094</ele>
        <time>2021-08-20T18:49:36Z</time>
      </trkpt>
      <trkpt lat="42.94393" lon="0.27693">
        <ele>1096</ele>
        <time>2021-08-20T18:49:40Z</time>
      </trkpt>
      <trkpt lat="42.94366" lon="0.2777">
        <ele>1097</ele>
        <time>2021-08-20T18:49:51Z</time>
      </trkpt>
      <trkpt lat="42.94359" lon="0.27798">
        <ele>1096</ele>
        <time>2021-08-20T18:49:55Z</time>
      </trkpt>
      <trkpt lat="42.94357" lon="0.27819">
        <ele>1097</ele>
        <time>2021-08-20T18:49:58Z</time>
      </trkpt>
      <trkpt lat="42.94364" lon="0.27941">
        <ele>1102</ele>
        <time>2021-08-20T18:50:14Z</time>
      </trkpt>
      <trkpt lat="42.94362" lon="0.27976">
        <ele>1099</ele>
        <time>2021-08-20T18:50:18Z</time>
      </trkpt>
      <trkpt lat="42.94343" lon="0.28043">
        <ele>1095</ele>
        <time>2021-08-20T18:50:28Z</time>
      </trkpt>
      <trkpt lat="42.94339" lon="0.28077">
        <ele>1095</ele>
        <time>2021-08-20T18:50:32Z</time>
      </trkpt>
      <trkpt lat="42.94331" lon="0.28119">
        <ele>1098</ele>
        <time>2021-08-20T18:50:38Z</time>
      </trkpt>
      <trkpt lat="42.94316" lon="0.2815">
        <ele>1100</ele>
        <time>2021-08-20T18:50:43Z</time>
      </trkpt>
      <trkpt lat="42.94287" lon="0.28207">
        <ele>1102</ele>
        <time>2021-08-20T18:50:52Z</time>
      </trkpt>
      <trkpt lat="42.9428" lon="0.28235">
        <ele>1103</ele>
        <time>2021-08-20T18:50:56Z</time>
      </trkpt>
      <trkpt lat="42.94276" lon="0.28274">
        <ele>1104</ele>
        <time>2021-08-20T18:51:01Z</time>
      </trkpt>
      <trkpt lat="42.94278" lon="0.28344">
        <ele>1106</ele>
        <time>2021-08-20T18:51:10Z</time>
      </trkpt>
      <trkpt lat="42.94283" lon="0.2849">
        <ele>1107</ele>
        <time>2021-08-20T18:51:29Z</time>
      </trkpt>
      <trkpt lat="42.94286" lon="0.28514">
        <ele>1107</ele>
        <time>2021-08-20T18:51:32Z</time>
      </trkpt>
      <trkpt lat="42.94291" lon="0.28536">
        <ele>1107</ele>
        <time>2021-08-20T18:51:35Z</time>
      </trkpt>
      <trkpt lat="42.94299" lon="0.28555">
        <ele>1107</ele>
        <time>2021-08-20T18:51:38Z</time>
      </trkpt>
      <trkpt lat="42.94347" lon="0.28645">
        <ele>1107</ele>
        <time>2021-08-20T18:51:52Z</time>
      </trkpt>
      <trkpt lat="42.94354" lon="0.28657">
        <ele>1107</ele>
        <time>2021-08-20T18:51:54Z</time>
      </trkpt>
      <trkpt lat="42.94364" lon="0.28673">
        <ele>1107</ele>
        <time>2021-08-20T18:51:57Z</time>
      </trkpt>
      <trkpt lat="42.94402" lon="0.28739">
        <ele>1106</ele>
        <time>2021-08-20T18:52:08Z</time>
      </trkpt>
      <trkpt lat="42.94424" lon="0.28783">
        <ele>1107</ele>
        <time>2021-08-20T18:52:15Z</time>
      </trkpt>
      <trkpt lat="42.94429" lon="0.28804">
        <ele>1108</ele>
        <time>2021-08-20T18:52:18Z</time>
      </trkpt>
      <trkpt lat="42.9443" lon="0.28853">
        <ele>1112</ele>
        <time>2021-08-20T18:52:24Z</time>
      </trkpt>
      <trkpt lat="42.94427" lon="0.28873">
        <ele>1114</ele>
        <time>2021-08-20T18:52:27Z</time>
      </trkpt>
      <trkpt lat="42.94421" lon="0.28889">
        <ele>1116</ele>
        <time>2021-08-20T18:52:29Z</time>
      </trkpt>
      <trkpt lat="42.9441" lon="0.28903">
        <ele>1120</ele>
        <time>2021-08-20T18:52:32Z</time>
      </trkpt>
      <trkpt lat="42.94405" lon="0.28905">
        <ele>1121</ele>
        <time>2021-08-20T18:52:33Z</time>
      </trkpt>
      <trkpt lat="42.94402" lon="0.28905">
        <ele>1122</ele>
        <time>2021-08-20T18:52:33Z</time>
      </trkpt>
      <trkpt lat="42.944" lon="0.28905">
        <ele>1122</ele>
        <time>2021-08-20T18:52:34Z</time>
      </trkpt>
      <trkpt lat="42.94387" lon="0.28898">
        <ele>1124</ele>
        <time>2021-08-20T18:52:36Z</time>
      </trkpt>
      <trkpt lat="42.94361" lon="0.28872">
        <ele>1124</ele>
        <time>2021-08-20T18:52:42Z</time>
      </trkpt>
      <trkpt lat="42.94338" lon="0.28855">
        <ele>1125</ele>
        <time>2021-08-20T18:52:47Z</time>
      </trkpt>
      <trkpt lat="42.9431" lon="0.28847">
        <ele>1126</ele>
        <time>2021-08-20T18:52:52Z</time>
      </trkpt>
      <trkpt lat="42.94256" lon="0.28838">
        <ele>1127</ele>
        <time>2021-08-20T18:53:01Z</time>
      </trkpt>
      <trkpt lat="42.94234" lon="0.2884">
        <ele>1128</ele>
        <time>2021-08-20T18:53:05Z</time>
      </trkpt>
      <trkpt lat="42.94214" lon="0.28846">
        <ele>1131</ele>
        <time>2021-08-20T18:53:09Z</time>
      </trkpt>
      <trkpt lat="42.94167" lon="0.2887">
        <ele>1137</ele>
        <time>2021-08-20T18:53:18Z</time>
      </trkpt>
      <trkpt lat="42.94133" lon="0.28892">
        <ele>1138</ele>
        <time>2021-08-20T18:53:25Z</time>
      </trkpt>
      <trkpt lat="42.94117" lon="0.28906">
        <ele>1139</ele>
        <time>2021-08-20T18:53:28Z</time>
      </trkpt>
      <trkpt lat="42.94106" lon="0.28921">
        <ele>1140</ele>
        <time>2021-08-20T18:53:31Z</time>
      </trkpt>
      <trkpt lat="42.94096" lon="0.28941">
        <ele>1142</ele>
        <time>2021-08-20T18:53:34Z</time>
      </trkpt>
      <trkpt lat="42.94066" lon="0.29024">
        <ele>1150</ele>
        <time>2021-08-20T18:53:46Z</time>
      </trkpt>
      <trkpt lat="42.94064" lon="0.29038">
        <ele>1152</ele>
        <time>2021-08-20T18:53:48Z</time>
      </trkpt>
      <trkpt lat="42.94066" lon="0.29045">
        <ele>1154</ele>
        <time>2021-08-20T18:53:49Z</time>
      </trkpt>
      <trkpt lat="42.94071" lon="0.29049">
        <ele>1157</ele>
        <time>2021-08-20T18:53:50Z</time>
      </trkpt>
      <trkpt lat="42.94083" lon="0.29048">
        <ele>1162</ele>
        <time>2021-08-20T18:53:52Z</time>
      </trkpt>
      <trkpt lat="42.94102" lon="0.29016">
        <ele>1158</ele>
        <time>2021-08-20T18:53:57Z</time>
      </trkpt>
      <trkpt lat="42.94111" lon="0.29011">
        <ele>1159</ele>
        <time>2021-08-20T18:53:59Z</time>
      </trkpt>
      <trkpt lat="42.94127" lon="0.29008">
        <ele>1161</ele>
        <time>2021-08-20T18:54:02Z</time>
      </trkpt>
      <trkpt lat="42.9416" lon="0.29008">
        <ele>1167</ele>
        <time>2021-08-20T18:54:08Z</time>
      </trkpt>
      <trkpt lat="42.94265" lon="0.29017">
        <ele>1174</ele>
        <time>2021-08-20T18:54:26Z</time>
      </trkpt>
      <trkpt lat="42.94271" lon="0.29023">
        <ele>1174</ele>
        <time>2021-08-20T18:54:28Z</time>
      </trkpt>
      <trkpt lat="42.94274" lon="0.2903">
        <ele>1175</ele>
        <time>2021-08-20T18:54:29Z</time>
      </trkpt>
      <trkpt lat="42.94273" lon="0.29038">
        <ele>1177</ele>
        <time>2021-08-20T18:54:30Z</time>
      </trkpt>
      <trkpt lat="42.94265" lon="0.29047">
        <ele>1181</ele>
        <time>2021-08-20T18:54:32Z</time>
      </trkpt>
      <trkpt lat="42.94221" lon="0.29052">
        <ele>1183</ele>
        <time>2021-08-20T18:54:40Z</time>
      </trkpt>
      <trkpt lat="42.942" lon="0.29063">
        <ele>1183</ele>
        <time>2021-08-20T18:54:44Z</time>
      </trkpt>
      <trkpt lat="42.9417" lon="0.29092">
        <ele>1187</ele>
        <time>2021-08-20T18:54:50Z</time>
      </trkpt>
      <trkpt lat="42.94153" lon="0.29116">
        <ele>1191</ele>
        <time>2021-08-20T18:54:55Z</time>
      </trkpt>
      <trkpt lat="42.94138" lon="0.29142">
        <ele>1194</ele>
        <time>2021-08-20T18:54:59Z</time>
      </trkpt>
      <trkpt lat="42.94068" lon="0.29271">
        <ele>1206</ele>
        <time>2021-08-20T18:55:20Z</time>
      </trkpt>
      <trkpt lat="42.94044" lon="0.29297">
        <ele>1203</ele>
        <time>2021-08-20T18:55:25Z</time>
      </trkpt>
      <trkpt lat="42.94038" lon="0.29305">
        <ele>1204</ele>
        <time>2021-08-20T18:55:27Z</time>
      </trkpt>
      <trkpt lat="42.94035" lon="0.29316">
        <ele>1205</ele>
        <time>2021-08-20T18:55:28Z</time>
      </trkpt>
      <trkpt lat="42.94038" lon="0.29325">
        <ele>1209</ele>
        <time>2021-08-20T18:55:29Z</time>
      </trkpt>
      <trkpt lat="42.94043" lon="0.29328">
        <ele>1211</ele>
        <time>2021-08-20T18:55:30Z</time>
      </trkpt>
      <trkpt lat="42.94051" lon="0.29328">
        <ele>1213</ele>
        <time>2021-08-20T18:55:32Z</time>
      </trkpt>
      <trkpt lat="42.9407" lon="0.29305">
        <ele>1213</ele>
        <time>2021-08-20T18:55:36Z</time>
      </trkpt>
      <trkpt lat="42.94087" lon="0.29293">
        <ele>1215</ele>
        <time>2021-08-20T18:55:40Z</time>
      </trkpt>
      <trkpt lat="42.94173" lon="0.29256">
        <ele>1223</ele>
        <time>2021-08-20T18:55:56Z</time>
      </trkpt>
      <trkpt lat="42.94232" lon="0.29241">
        <ele>1223</ele>
        <time>2021-08-20T18:56:07Z</time>
      </trkpt>
      <trkpt lat="42.94239" lon="0.29242">
        <ele>1224</ele>
        <time>2021-08-20T18:56:08Z</time>
      </trkpt>
      <trkpt lat="42.94246" lon="0.29249">
        <ele>1225</ele>
        <time>2021-08-20T18:56:09Z</time>
      </trkpt>
      <trkpt lat="42.94248" lon="0.29261">
        <ele>1227</ele>
        <time>2021-08-20T18:56:11Z</time>
      </trkpt>
      <trkpt lat="42.94247" lon="0.29272">
        <ele>1228</ele>
        <time>2021-08-20T18:56:12Z</time>
      </trkpt>
      <trkpt lat="42.9424" lon="0.29284">
        <ele>1230</ele>
        <time>2021-08-20T18:56:14Z</time>
      </trkpt>
      <trkpt lat="42.94204" lon="0.29304">
        <ele>1232</ele>
        <time>2021-08-20T18:56:21Z</time>
      </trkpt>
      <trkpt lat="42.94186" lon="0.2932">
        <ele>1234</ele>
        <time>2021-08-20T18:56:25Z</time>
      </trkpt>
      <trkpt lat="42.94116" lon="0.29418">
        <ele>1245</ele>
        <time>2021-08-20T18:56:43Z</time>
      </trkpt>
      <trkpt lat="42.941" lon="0.29451">
        <ele>1251</ele>
        <time>2021-08-20T18:56:48Z</time>
      </trkpt>
      <trkpt lat="42.94083" lon="0.29504">
        <ele>1260</ele>
        <time>2021-08-20T18:56:56Z</time>
      </trkpt>
      <trkpt lat="42.94048" lon="0.2958">
        <ele>1264</ele>
        <time>2021-08-20T18:57:07Z</time>
      </trkpt>
      <trkpt lat="42.9404" lon="0.29601">
        <ele>1267</ele>
        <time>2021-08-20T18:57:10Z</time>
      </trkpt>
      <trkpt lat="42.94036" lon="0.29619">
        <ele>1270</ele>
        <time>2021-08-20T18:57:13Z</time>
      </trkpt>
      <trkpt lat="42.94034" lon="0.29643">
        <ele>1274</ele>
        <time>2021-08-20T18:57:16Z</time>
      </trkpt>
      <trkpt lat="42.9403" lon="0.29656">
        <ele>1276</ele>
        <time>2021-08-20T18:57:18Z</time>
      </trkpt>
      <trkpt lat="42.94019" lon="0.29663">
        <ele>1276</ele>
        <time>2021-08-20T18:57:20Z</time>
      </trkpt>
      <trkpt lat="42.93981" lon="0.29679">
        <ele>1271</ele>
        <time>2021-08-20T18:57:27Z</time>
      </trkpt>
      <trkpt lat="42.93965" lon="0.29693">
        <ele>1270</ele>
        <time>2021-08-20T18:57:30Z</time>
      </trkpt>
      <trkpt lat="42.93954" lon="0.2971">
        <ele>1272</ele>
        <time>2021-08-20T18:57:33Z</time>
      </trkpt>
      <trkpt lat="42.93925" lon="0.29782">
        <ele>1282</ele>
        <time>2021-08-20T18:57:44Z</time>
      </trkpt>
      <trkpt lat="42.93908" lon="0.29835">
        <ele>1284</ele>
        <time>2021-08-20T18:57:52Z</time>
      </trkpt>
      <trkpt lat="42.93905" lon="0.29885">
        <ele>1280</ele>
        <time>2021-08-20T18:57:58Z</time>
      </trkpt>
      <trkpt lat="42.93914" lon="0.29909">
        <ele>1282</ele>
        <time>2021-08-20T18:58:02Z</time>
      </trkpt>
      <trkpt lat="42.93938" lon="0.29928">
        <ele>1292</ele>
        <time>2021-08-20T18:58:07Z</time>
      </trkpt>
      <trkpt lat="42.93944" lon="0.29939">
        <ele>1294</ele>
        <time>2021-08-20T18:58:08Z</time>
      </trkpt>
      <trkpt lat="42.93948" lon="0.29956">
        <ele>1295</ele>
        <time>2021-08-20T18:58:11Z</time>
      </trkpt>
      <trkpt lat="42.93948" lon="0.29998">
        <ele>1293</ele>
        <time>2021-08-20T18:58:16Z</time>
      </trkpt>
      <trkpt lat="42.93952" lon="0.30017">
        <ele>1294</ele>
        <time>2021-08-20T18:58:19Z</time>
      </trkpt>
      <trkpt lat="42.93957" lon="0.30029">
        <ele>1294</ele>
        <time>2021-08-20T18:58:21Z</time>
      </trkpt>
      <trkpt lat="42.93968" lon="0.30036">
        <ele>1298</ele>
        <time>2021-08-20T18:58:23Z</time>
      </trkpt>
      <trkpt lat="42.93989" lon="0.30039">
        <ele>1306</ele>
        <time>2021-08-20T18:58:27Z</time>
      </trkpt>
      <trkpt lat="42.93997" lon="0.30043">
        <ele>1309</ele>
        <time>2021-08-20T18:58:28Z</time>
      </trkpt>
      <trkpt lat="42.94005" lon="0.30055">
        <ele>1310</ele>
        <time>2021-08-20T18:58:30Z</time>
      </trkpt>
      <trkpt lat="42.94021" lon="0.30098">
        <ele>1309</ele>
        <time>2021-08-20T18:58:36Z</time>
      </trkpt>
      <trkpt lat="42.94058" lon="0.30184">
        <ele>1311</ele>
        <time>2021-08-20T18:58:49Z</time>
      </trkpt>
      <trkpt lat="42.94079" lon="0.30206">
        <ele>1317</ele>
        <time>2021-08-20T18:58:54Z</time>
      </trkpt>
      <trkpt lat="42.94115" lon="0.30231">
        <ele>1326</ele>
        <time>2021-08-20T18:59:01Z</time>
      </trkpt>
      <trkpt lat="42.94137" lon="0.30255">
        <ele>1330</ele>
        <time>2021-08-20T18:59:06Z</time>
      </trkpt>
      <trkpt lat="42.94144" lon="0.3027">
        <ele>1331</ele>
        <time>2021-08-20T18:59:09Z</time>
      </trkpt>
      <trkpt lat="42.94151" lon="0.303">
        <ele>1330</ele>
        <time>2021-08-20T18:59:13Z</time>
      </trkpt>
      <trkpt lat="42.94174" lon="0.30359">
        <ele>1333</ele>
        <time>2021-08-20T18:59:21Z</time>
      </trkpt>
      <trkpt lat="42.94179" lon="0.30372">
        <ele>1333</ele>
        <time>2021-08-20T18:59:23Z</time>
      </trkpt>
      <trkpt lat="42.94196" lon="0.30423">
        <ele>1336</ele>
        <time>2021-08-20T18:59:31Z</time>
      </trkpt>
      <trkpt lat="42.94219" lon="0.30472">
        <ele>1342</ele>
        <time>2021-08-20T18:59:38Z</time>
      </trkpt>
      <trkpt lat="42.94232" lon="0.30525">
        <ele>1344</ele>
        <time>2021-08-20T18:59:46Z</time>
      </trkpt>
      <trkpt lat="42.94237" lon="0.30533">
        <ele>1345</ele>
        <time>2021-08-20T18:59:47Z</time>
      </trkpt>
      <trkpt lat="42.94245" lon="0.30538">
        <ele>1349</ele>
        <time>2021-08-20T18:59:48Z</time>
      </trkpt>
      <trkpt lat="42.94273" lon="0.30546">
        <ele>1357</ele>
        <time>2021-08-20T18:59:54Z</time>
      </trkpt>
      <trkpt lat="42.94278" lon="0.30551">
        <ele>1358</ele>
        <time>2021-08-20T18:59:55Z</time>
      </trkpt>
      <trkpt lat="42.9428" lon="0.30559">
        <ele>1358</ele>
        <time>2021-08-20T18:59:56Z</time>
      </trkpt>
      <trkpt lat="42.94283" lon="0.30676">
        <ele>1359</ele>
        <time>2021-08-20T19:00:11Z</time>
      </trkpt>
      <trkpt lat="42.94288" lon="0.30686">
        <ele>1361</ele>
        <time>2021-08-20T19:00:13Z</time>
      </trkpt>
      <trkpt lat="42.94304" lon="0.30696">
        <ele>1366</ele>
        <time>2021-08-20T19:00:16Z</time>
      </trkpt>
      <trkpt lat="42.94309" lon="0.30707">
        <ele>1368</ele>
        <time>2021-08-20T19:00:17Z</time>
      </trkpt>
      <trkpt lat="42.94307" lon="0.30721">
        <ele>1368</ele>
        <time>2021-08-20T19:00:19Z</time>
      </trkpt>
      <trkpt lat="42.94282" lon="0.30795">
        <ele>1365</ele>
        <time>2021-08-20T19:00:30Z</time>
      </trkpt>
      <trkpt lat="42.94262" lon="0.30882">
        <ele>1368</ele>
        <time>2021-08-20T19:00:42Z</time>
      </trkpt>
      <trkpt lat="42.94252" lon="0.30961">
        <ele>1375</ele>
        <time>2021-08-20T19:00:52Z</time>
      </trkpt>
      <trkpt lat="42.94242" lon="0.31119">
        <ele>1378</ele>
        <time>2021-08-20T19:01:13Z</time>
      </trkpt>
      <trkpt lat="42.94243" lon="0.31128">
        <ele>1378</ele>
        <time>2021-08-20T19:01:14Z</time>
      </trkpt>
      <trkpt lat="42.94247" lon="0.31135">
        <ele>1379</ele>
        <time>2021-08-20T19:01:15Z</time>
      </trkpt>
      <trkpt lat="42.94285" lon="0.31153">
        <ele>1388</ele>
        <time>2021-08-20T19:01:22Z</time>
      </trkpt>
      <trkpt lat="42.943" lon="0.31164">
        <ele>1391</ele>
        <time>2021-08-20T19:01:25Z</time>
      </trkpt>
      <trkpt lat="42.94322" lon="0.3119">
        <ele>1391</ele>
        <time>2021-08-20T19:01:31Z</time>
      </trkpt>
      <trkpt lat="42.94352" lon="0.31235">
        <ele>1389</ele>
        <time>2021-08-20T19:01:38Z</time>
      </trkpt>
      <trkpt lat="42.94384" lon="0.31263">
        <ele>1394</ele>
        <time>2021-08-20T19:01:45Z</time>
      </trkpt>
      <trkpt lat="42.94415" lon="0.31312">
        <ele>1395</ele>
        <time>2021-08-20T19:01:54Z</time>
      </trkpt>
      <trkpt lat="42.94466" lon="0.31425">
        <ele>1402</ele>
        <time>2021-08-20T19:02:11Z</time>
      </trkpt>
      <trkpt lat="42.94477" lon="0.31463">
        <ele>1403</ele>
        <time>2021-08-20T19:02:16Z</time>
      </trkpt>
      <trkpt lat="42.9449" lon="0.31494">
        <ele>1405</ele>
        <time>2021-08-20T19:02:21Z</time>
      </trkpt>
      <trkpt lat="42.94562" lon="0.31594">
        <ele>1417</ele>
        <time>2021-08-20T19:02:39Z</time>
      </trkpt>
      <trkpt lat="42.94583" lon="0.31618">
        <ele>1419</ele>
        <time>2021-08-20T19:02:44Z</time>
      </trkpt>
      <trkpt lat="42.94598" lon="0.31626">
        <ele>1424</ele>
        <time>2021-08-20T19:02:47Z</time>
      </trkpt>
      <trkpt lat="42.94611" lon="0.31636">
        <ele>1428</ele>
        <time>2021-08-20T19:02:50Z</time>
      </trkpt>
      <trkpt lat="42.94623" lon="0.31651">
        <ele>1430</ele>
        <time>2021-08-20T19:02:52Z</time>
      </trkpt>
      <trkpt lat="42.94637" lon="0.31677">
        <ele>1434</ele>
        <time>2021-08-20T19:02:57Z</time>
      </trkpt>
      <trkpt lat="42.94647" lon="0.31689">
        <ele>1439</ele>
        <time>2021-08-20T19:02:59Z</time>
      </trkpt>
      <trkpt lat="42.9465" lon="0.31704">
        <ele>1442</ele>
        <time>2021-08-20T19:03:01Z</time>
      </trkpt>
      <trkpt lat="42.9465" lon="0.31717">
        <ele>1443</ele>
        <time>2021-08-20T19:03:03Z</time>
      </trkpt>
      <trkpt lat="42.94644" lon="0.31731">
        <ele>1441</ele>
        <time>2021-08-20T19:03:05Z</time>
      </trkpt>
      <trkpt lat="42.94622" lon="0.31748">
        <ele>1433</ele>
        <time>2021-08-20T19:03:09Z</time>
      </trkpt>
      <trkpt lat="42.94607" lon="0.31767">
        <ele>1430</ele>
        <time>2021-08-20T19:03:13Z</time>
      </trkpt>
      <trkpt lat="42.94588" lon="0.31811">
        <ele>1430</ele>
        <time>2021-08-20T19:03:20Z</time>
      </trkpt>
      <trkpt lat="42.94575" lon="0.31848">
        <ele>1434</ele>
        <time>2021-08-20T19:03:25Z</time>
      </trkpt>
      <trkpt lat="42.94559" lon="0.31908">
        <ele>1447</ele>
        <time>2021-08-20T19:03:33Z</time>
      </trkpt>
      <trkpt lat="42.94526" lon="0.31961">
        <ele>1451</ele>
        <time>2021-08-20T19:03:42Z</time>
      </trkpt>
      <trkpt lat="42.94502" lon="0.32008">
        <ele>1455</ele>
        <time>2021-08-20T19:03:50Z</time>
      </trkpt>
    </trkseg>
  </trk>
</gpx>